Time;durP1;ratioP1;P1;durP2;ratioP2;P2;SDS_P1;SDS_P2;PMS_P1;PMS_P2;Temp;Humidity;BMP_temperature;BMP_pressure;BME280_temperature;BME280_humidity;BME280_pressure;Samples;Min_cycle;Max_cycle;Signal;HPM_P1;HPM_P2
2022/05/14 00:01:53;;;;;;;28.08;20.65;;;16.50;99.90;;;;;;5056307;28;20106;-54
2022/05/14 00:04:20;;;;;;;31.92;22.33;;;16.50;99.90;;;;;;5056408;28;20475;-54
2022/05/14 00:06:46;;;;;;;38.22;21.55;;;16.50;99.90;;;;;;5056380;28;20029;-54
2022/05/14 00:09:12;;;;;;;29.15;18.88;;;16.60;99.90;;;;;;5056313;28;20052;-54
2022/05/14 00:14:23;;;;;;;27.17;16.63;;;16.60;99.90;;;;;;5056307;28;20105;-54
2022/05/14 00:16:50;;;;;;;27.88;18.20;;;16.50;99.90;;;;;;5056180;28;20459;-54
2022/05/14 00:19:16;;;;;;;26.23;17.27;;;16.50;99.90;;;;;;5056115;28;20029;-54
2022/05/14 00:21:42;;;;;;;26.42;16.85;;;16.40;99.90;;;;;;5056134;28;20032;-54
2022/05/14 00:24:09;;;;;;;27.85;17.80;;;16.30;99.90;;;;;;5056014;28;20044;-54
2022/05/14 00:26:37;;;;;;;26.65;17.73;;;16.30;99.90;;;;;;5056011;28;20032;-54
2022/05/14 00:29:05;;;;;;;31.52;18.58;;;16.30;99.90;;;;;;5056238;28;20052;-54
2022/05/14 00:31:31;;;;;;;27.60;19.25;;;16.20;99.90;;;;;;5055949;28;20048;-54
2022/05/14 00:33:57;;;;;;;28.45;18.13;;;16.20;99.90;;;;;;5037981;28;20032;-54
2022/05/14 00:36:23;;;;;;;25.75;18.92;;;16.20;99.90;;;;;;5037949;28;20092;-54
2022/05/14 00:38:50;;;;;;;28.23;19.77;;;16.10;99.90;;;;;;5055870;28;20025;-54
2022/05/14 00:41:17;;;;;;;27.55;18.83;;;16.20;99.90;;;;;;5055734;28;20025;-54
2022/05/14 00:43:50;;;;;;;29.67;19.85;;;16.20;99.90;;;;;;5054740;28;20463;-54
2022/05/14 00:46:43;;;;;;;30.20;20.30;;;16.10;99.90;;;;;;5055495;28;20445;-54
2022/05/14 00:49:10;;;;;;;32.05;20.63;;;16.10;99.90;;;;;;5055626;28;20029;-54
2022/05/14 00:51:39;;;;;;;28.92;20.35;;;16.10;99.90;;;;;;5055507;28;20395;-54
2022/05/14 00:54:10;;;;;;;41.25;24.30;;;16.20;99.90;;;;;;5055429;28;20037;-54
2022/05/14 00:56:43;;;;;;;38.88;22.63;;;16.20;99.90;;;;;;5055540;28;20162;-54
2022/05/14 00:59:15;;;;;;;35.47;24.58;;;16.20;99.90;;;;;;5055556;28;20085;-54
2022/05/14 01:01:44;;;;;;;43.17;25.58;;;16.30;99.90;;;;;;5055430;28;20394;-54
2022/05/14 01:04:11;;;;;;;38.60;26.08;;;16.40;99.90;;;;;;5037258;28;20044;-54
2022/05/14 01:06:41;;;;;;;46.70;28.77;;;16.40;99.90;;;;;;5055280;28;20106;-54
2022/05/14 01:09:07;;;;;;;46.10;30.13;;;16.50;99.90;;;;;;5037199;28;20060;-54
2022/05/14 01:11:37;;;;;;;48.40;28.33;;;16.50;99.90;;;;;;5037270;28;20044;-54
2022/05/14 01:14:03;;;;;;;37.65;24.55;;;16.60;99.90;;;;;;5055061;28;20445;-54
2022/05/14 01:16:33;;;;;;;35.72;23.77;;;16.60;99.90;;;;;;5037150;28;20498;-54
2022/05/14 01:18:59;;;;;;;32.00;21.70;;;16.70;99.90;;;;;;5037175;28;20021;-54
2022/05/14 01:21:56;;;;;;;33.58;22.02;;;16.70;99.90;;;;;;5037013;28;20028;-54
2022/05/14 01:27:15;;;;;;;36.17;25.40;;;16.80;99.90;;;;;;5036899;28;20128;-54
2022/05/14 01:29:42;;;;;;;35.90;22.92;;;16.80;99.90;;;;;;5037007;28;20040;-54
2022/05/14 01:32:11;;;;;;;36.28;23.63;;;16.80;99.90;;;;;;5037009;28;20124;-54
2022/05/14 01:34:37;;;;;;;35.40;24.73;;;16.80;99.90;;;;;;5054660;28;20125;-54
2022/05/14 01:37:05;;;;;;;38.90;24.52;;;16.80;99.90;;;;;;5036915;28;20434;-54
2022/05/14 01:39:34;;;;;;;38.90;24.83;;;16.90;99.90;;;;;;5036688;28;20053;-54
2022/05/14 01:42:00;;;;;;;37.65;22.95;;;17.00;99.90;;;;;;5036780;28;20112;-54
2022/05/14 01:44:28;;;;;;;35.70;22.83;;;17.00;99.90;;;;;;5036607;28;20043;-54
2022/05/14 01:46:54;;;;;;;25.90;18.80;;;17.00;99.90;;;;;;5036696;28;20090;-54
2022/05/14 01:49:20;;;;;;;35.25;21.00;;;17.00;99.90;;;;;;5036949;28;20029;-54
2022/05/14 01:51:47;;;;;;;30.55;19.52;;;16.90;99.90;;;;;;5054460;28;20036;-54
2022/05/14 01:54:13;;;;;;;27.52;20.55;;;16.90;99.90;;;;;;5036260;28;20036;-54
2022/05/14 01:56:39;;;;;;;33.50;22.52;;;16.90;99.90;;;;;;5036627;28;20132;-54
2022/05/14 01:59:05;;;;;;;36.88;23.67;;;16.90;99.90;;;;;;5036483;28;20157;-54
2022/05/14 02:01:35;;;;;;;41.63;24.30;;;16.90;99.90;;;;;;5036567;28;20088;-54
2022/05/14 02:04:04;;;;;;;32.72;23.75;;;16.90;99.90;;;;;;5054312;28;20028;-54
2022/05/14 02:06:32;;;;;;;36.65;23.73;;;17.00;99.90;;;;;;5036568;28;20041;-54
2022/05/14 02:09:00;;;;;;;34.20;21.65;;;17.00;99.90;;;;;;5036385;28;20096;-54
2022/05/14 02:11:28;;;;;;;29.73;21.33;;;17.10;99.90;;;;;;5036523;28;20247;-54
2022/05/14 02:14:02;;;;;;;26.42;18.88;;;17.10;99.90;;;;;;5054257;28;20057;-54
2022/05/14 02:16:29;;;;;;;27.25;18.55;;;17.20;99.90;;;;;;5054314;28;20036;-54
2022/05/14 02:18:56;;;;;;;22.65;15.93;;;17.20;99.90;;;;;;5036214;28;20025;-54
2022/05/14 02:21:24;;;;;;;22.80;15.50;;;17.20;99.90;;;;;;5036399;28;20129;-54
2022/05/14 02:23:55;;;;;;;17.23;12.77;;;17.20;99.90;;;;;;5036361;28;20029;-54
2022/05/14 02:26:22;;;;;;;21.30;13.50;;;17.20;99.90;;;;;;5036336;28;20033;-54
2022/05/14 02:28:50;;;;;;;22.13;14.05;;;17.30;99.90;;;;;;5036127;28;20037;-54
2022/05/14 02:31:16;;;;;;;17.30;12.80;;;17.30;99.90;;;;;;5054107;28;20044;-54
2022/05/14 02:33:42;;;;;;;17.77;13.10;;;17.40;99.90;;;;;;5054065;28;20037;-54
2022/05/14 02:36:08;;;;;;;20.70;15.40;;;17.40;99.90;;;;;;5032829;28;20103;-54
2022/05/14 02:38:36;;;;;;;22.00;14.60;;;17.50;99.90;;;;;;5034138;28;20049;-54
2022/05/14 02:41:04;;;;;;;24.77;15.18;;;17.50;99.90;;;;;;5032692;28;20560;-54
2022/05/14 02:43:32;;;;;;;26.25;16.65;;;17.50;99.90;;;;;;5034047;28;20030;-54
2022/05/14 02:46:00;;;;;;;28.42;16.17;;;17.50;99.90;;;;;;5032815;28;20454;-54
2022/05/14 02:48:27;;;;;;;25.20;15.95;;;17.50;99.90;;;;;;5032972;28;20033;-54
2022/05/14 02:50:53;;;;;;;28.63;18.98;;;17.50;99.90;;;;;;5034126;28;20036;-54
2022/05/14 02:53:21;;;;;;;28.98;18.10;;;17.50;99.90;;;;;;5032552;28;20649;-54
2022/05/14 02:55:47;;;;;;;28.83;18.65;;;17.40;99.90;;;;;;5032734;28;20036;-54
2022/05/14 02:59:06;;;;;;;32.90;19.63;;;17.30;99.90;;;;;;5034046;28;20112;-54
2022/05/14 03:00:59;;;;;;;26.98;19.90;;;17.30;99.90;;;;;;5033979;28;20021;-54
2022/05/14 03:03:26;;;;;;;30.75;19.23;;;17.20;99.90;;;;;;5032544;28;20041;-54
2022/05/14 03:05:52;;;;;;;29.80;17.98;;;17.30;99.90;;;;;;5032687;28;20037;-54
2022/05/14 03:08:19;;;;;;;24.38;17.15;;;17.30;99.90;;;;;;5037661;28;20471;-54
2022/05/14 03:10:45;;;;;;;22.27;16.77;;;17.30;99.90;;;;;;5037481;28;20021;-54
2022/05/14 03:13:10;;;;;;;28.50;17.27;;;17.30;99.90;;;;;;5036133;28;20036;-54
2022/05/14 03:15:37;;;;;;;30.75;17.58;;;17.20;99.90;;;;;;5036252;28;20029;-54
2022/05/14 03:18:03;;;;;;;27.52;19.45;;;17.20;99.90;;;;;;5036172;28;20459;-54
2022/05/14 03:20:30;;;;;;;29.50;18.73;;;17.20;99.90;;;;;;5037251;28;20030;-54
2022/05/14 03:22:56;;;;;;;28.45;18.90;;;17.20;99.90;;;;;;5036165;28;20040;-54
2022/05/14 03:25:22;;;;;;;31.00;21.48;;;17.20;99.90;;;;;;5035826;28;20040;-54
2022/05/14 03:27:48;;;;;;;32.33;18.95;;;17.20;99.90;;;;;;5035765;28;20086;-54
2022/05/14 03:30:14;;;;;;;35.33;21.48;;;17.10;99.90;;;;;;5037203;28;20029;-54
2022/05/14 03:32:41;;;;;;;30.92;20.58;;;17.20;99.90;;;;;;5037042;28;20026;-54
2022/05/14 03:35:08;;;;;;;32.85;22.92;;;17.20;99.90;;;;;;5046603;28;20044;-54
2022/05/14 03:37:35;;;;;;;35.53;24.20;;;17.10;99.90;;;;;;5039273;28;20059;-54
2022/05/14 03:40:04;;;;;;;36.50;23.83;;;17.10;99.90;;;;;;5038890;28;20029;-54
2022/05/14 03:42:31;;;;;;;33.28;22.08;;;17.10;99.90;;;;;;5056869;28;20106;-54
2022/05/14 03:44:58;;;;;;;38.70;23.67;;;17.10;99.90;;;;;;5039010;28;20033;-54
2022/05/14 03:47:24;;;;;;;43.65;25.70;;;17.10;99.90;;;;;;5056768;28;20077;-54
2022/05/14 03:49:50;;;;;;;53.78;26.20;;;17.10;99.90;;;;;;5038815;28;20029;-54
2022/05/14 03:52:16;;;;;;;36.85;24.02;;;17.10;99.90;;;;;;5038675;28;20028;-54
2022/05/14 03:54:45;;;;;;;38.85;23.60;;;17.10;99.90;;;;;;5038697;28;20033;-54
2022/05/14 03:57:13;;;;;;;37.78;21.85;;;17.10;99.90;;;;;;5038653;28;20060;-54
2022/05/14 03:59:40;;;;;;;38.63;23.60;;;17.10;99.90;;;;;;5038674;28;20025;-54
2022/05/14 04:02:07;;;;;;;36.08;23.25;;;17.20;99.90;;;;;;5038621;28;20029;-54
2022/05/14 04:04:34;;;;;;;43.60;26.88;;;17.20;99.90;;;;;;5056296;28;20036;-54
2022/05/14 04:07:00;;;;;;;57.25;30.80;;;17.10;99.90;;;;;;5038434;28;20083;-54
2022/05/14 04:09:26;;;;;;;53.08;29.15;;;17.20;99.90;;;;;;5038343;28;20429;-54
2022/05/14 04:11:54;;;;;;;52.80;29.65;;;17.30;99.90;;;;;;5038455;28;20032;-54
2022/05/14 04:14:22;;;;;;;49.80;30.15;;;17.30;99.90;;;;;;5038191;28;20075;-54
2022/05/14 04:16:50;;;;;;;54.60;31.63;;;17.30;99.90;;;;;;5038102;28;20384;-54
2022/05/14 04:19:19;;;;;;;48.10;29.33;;;17.30;99.90;;;;;;5038356;28;20025;-54
2022/05/14 04:21:46;;;;;;;58.67;33.25;;;17.30;99.90;;;;;;5038232;28;20431;-54
2022/05/14 04:24:12;;;;;;;55.55;32.20;;;17.30;99.90;;;;;;5038171;28;20394;-54
2022/05/14 04:26:39;;;;;;;50.33;30.55;;;17.30;99.90;;;;;;5038166;28;20029;-54
2022/05/14 04:29:05;;;;;;;51.17;29.80;;;17.30;99.90;;;;;;5037786;28;20083;-54
2022/05/14 04:31:31;;;;;;;54.40;29.85;;;17.20;99.90;;;;;;5038133;28;20033;-54
2022/05/14 04:33:58;;;;;;;57.78;29.88;;;17.30;99.90;;;;;;5037692;28;20165;-54
2022/05/14 04:36:24;;;;;;;56.70;30.10;;;17.30;99.90;;;;;;5055713;28;20037;-54
2022/05/14 04:38:51;;;;;;;50.05;29.35;;;17.30;99.90;;;;;;5037820;28;20040;-54
2022/05/14 04:41:18;;;;;;;48.15;27.10;;;17.30;99.90;;;;;;5037817;28;20465;-54
2022/05/14 04:43:45;;;;;;;51.70;27.10;;;17.40;99.90;;;;;;5037709;28;20044;-54
2022/05/14 04:46:12;;;;;;;47.83;27.20;;;17.40;99.90;;;;;;5037775;28;20119;-54
2022/05/14 04:48:38;;;;;;;44.50;25.25;;;17.40;99.90;;;;;;5037921;28;20037;-54
2022/05/14 04:51:05;;;;;;;51.33;27.35;;;17.50;99.90;;;;;;5055387;28;20139;-54
2022/05/14 04:53:31;;;;;;;62.80;27.35;;;17.50;99.90;;;;;;5055433;28;20040;-54
2022/05/14 04:55:57;;;;;;;47.55;25.42;;;17.50;99.90;;;;;;5055331;28;20089;-54
2022/05/14 04:58:25;;;;;;;42.78;26.23;;;17.60;99.90;;;;;;5037439;28;20036;-54
2022/05/14 05:00:52;;;;;;;42.10;24.17;;;17.60;99.90;;;;;;5037549;28;20106;-54
2022/05/14 05:03:19;;;;;;;40.38;23.30;;;17.60;99.90;;;;;;5037364;28;20037;-54
2022/05/14 05:05:58;;;;;;;41.08;20.52;;;17.60;99.90;;;;;;5037381;28;20043;-54
2022/05/14 05:08:27;;;;;;;39.45;19.65;;;17.60;99.90;;;;;;5037361;28;20200;-54
2022/05/14 05:10:53;;;;;;;34.63;19.23;;;17.60;99.90;;;;;;5055176;28;20029;-54
2022/05/14 05:13:23;;;;;;;31.25;18.17;;;17.70;99.90;;;;;;5055169;28;20024;-54
2022/05/14 05:15:49;;;;;;;32.35;16.50;;;17.70;99.90;;;;;;5055079;28;20512;-54
2022/05/14 05:18:16;;;;;;;24.10;15.57;;;17.70;99.90;;;;;;5055103;28;20033;-54
2022/05/14 05:20:44;;;;;;;27.73;15.65;;;17.70;99.90;;;;;;5055006;28;20502;-54
2022/05/14 05:23:13;;;;;;;22.58;13.70;;;17.70;99.90;;;;;;5054969;28;20115;-54
2022/05/14 05:25:41;;;;;;;20.20;13.80;;;17.70;99.90;;;;;;5054783;28;20084;-54
2022/05/14 05:28:08;;;;;;;22.58;13.32;;;17.70;99.90;;;;;;5055017;28;20043;-54
2022/05/14 05:30:34;;;;;;;20.60;13.23;;;17.70;99.90;;;;;;5054410;28;20120;-54
2022/05/14 05:33:01;;;;;;;24.38;14.38;;;17.60;99.90;;;;;;5054702;28;20047;-54
2022/05/14 05:35:27;;;;;;;18.90;13.57;;;17.60;99.90;;;;;;5054613;28;20056;-54
2022/05/14 05:37:54;;;;;;;23.98;12.82;;;17.70;99.90;;;;;;5054670;28;20029;-54
2022/05/14 05:40:20;;;;;;;24.15;14.30;;;17.70;99.90;;;;;;5054614;28;20497;-54
2022/05/14 05:42:46;;;;;;;25.73;13.85;;;17.60;99.90;;;;;;5036658;28;20028;-54
2022/05/14 05:45:15;;;;;;;19.00;12.32;;;17.70;99.90;;;;;;5054477;28;20039;-54
2022/05/14 05:47:41;;;;;;;21.38;12.27;;;17.70;99.90;;;;;;5054687;28;20035;-54
2022/05/14 05:50:08;;;;;;;17.77;11.68;;;17.70;99.90;;;;;;5054482;28;20028;-54
2022/05/14 05:52:34;;;;;;;16.88;11.70;;;17.70;99.90;;;;;;5054462;28;20025;-54
2022/05/14 05:57:45;;;;;;;31.15;14.02;;;17.70;99.90;;;;;;5054322;28;20382;-55
2022/05/14 06:00:16;;;;;;;24.25;12.95;;;17.70;99.90;;;;;;5054270;28;20028;-55
2022/05/14 06:02:42;;;;;;;19.05;11.32;;;17.70;99.90;;;;;;5054257;28;20086;-55
2022/05/14 06:05:09;;;;;;;12.85;9.85;;;17.70;99.90;;;;;;5054243;28;20103;-55
2022/05/14 06:07:36;;;;;;;12.35;9.02;;;17.70;99.90;;;;;;5054314;28;20032;-55
2022/05/14 06:10:04;;;;;;;20.85;11.43;;;17.70;99.90;;;;;;5054378;28;20372;-55
2022/05/14 06:12:30;;;;;;;17.35;10.63;;;17.70;99.90;;;;;;5054052;28;20025;-55
2022/05/14 06:14:56;;;;;;;24.30;12.43;;;17.70;99.90;;;;;;5053979;28;20032;-55
2022/05/14 06:17:23;;;;;;;16.52;9.48;;;17.70;99.90;;;;;;5053961;28;20064;-55
2022/05/14 06:19:49;;;;;;;15.27;10.98;;;17.70;99.90;;;;;;5054424;28;20033;-55
2022/05/14 06:22:15;;;;;;;19.30;10.30;;;17.70;99.90;;;;;;5054398;28;20029;-55
2022/05/14 06:24:41;;;;;;;15.20;10.27;;;17.70;99.90;;;;;;5053965;28;20025;-55
2022/05/14 06:27:07;;;;;;;24.60;12.05;;;17.70;99.90;;;;;;5054062;28;20060;-55
2022/05/14 06:29:34;;;;;;;19.27;12.02;;;17.80;99.90;;;;;;5054050;28;20115;-55
2022/05/14 06:32:00;;;;;;;18.52;12.43;;;17.70;99.90;;;;;;5053835;28;20494;-55
2022/05/14 06:34:26;;;;;;;18.92;12.50;;;17.70;99.90;;;;;;5054032;28;20041;-55
2022/05/14 06:36:53;;;;;;;31.13;15.43;;;17.70;99.90;;;;;;5053971;28;20031;-55
2022/05/14 06:39:19;;;;;;;34.58;16.90;;;17.70;99.90;;;;;;5053749;28;20114;-55
2022/05/14 06:41:47;;;;;;;40.13;19.70;;;17.80;99.90;;;;;;5055599;28;20422;-55
2022/05/14 06:44:14;;;;;;;37.13;19.55;;;17.90;99.90;;;;;;5057559;28;20062;-55
2022/05/14 06:46:40;;;;;;;41.33;20.15;;;18.00;99.90;;;;;;5057906;28;20064;-55
2022/05/14 06:49:06;;;;;;;40.67;19.80;;;18.00;99.90;;;;;;5057912;28;20025;-55
2022/05/14 06:51:33;;;;;;;35.08;20.63;;;18.10;99.90;;;;;;5057785;28;20052;-55
2022/05/14 06:54:04;;;;;;;36.50;18.48;;;18.10;99.90;;;;;;5057522;28;20068;-55
2022/05/14 06:56:32;;;;;;;30.02;17.08;;;18.10;99.90;;;;;;5057720;28;20025;-55
2022/05/14 06:59:00;;;;;;;22.33;13.82;;;18.20;99.90;;;;;;5057782;28;20039;-55
2022/05/14 07:01:28;;;;;;;22.63;12.18;;;18.10;99.90;;;;;;5057552;28;20021;-56
2022/05/14 07:06:46;;;;;;;21.30;12.90;;;18.30;99.90;;;;;;5039630;28;20116;-55
2022/05/14 07:09:26;;;;;;;19.02;11.63;;;18.30;99.90;;;;;;5057543;28;20108;-55
2022/05/14 07:11:57;;;;;;;24.10;13.88;;;18.30;99.90;;;;;;5057455;28;20033;-54
2022/05/14 07:14:25;;;;;;;17.83;11.45;;;18.30;99.90;;;;;;5057318;28;20115;-55
2022/05/14 07:16:52;;;;;;;16.60;11.02;;;18.40;99.90;;;;;;5057156;28;20029;-55
2022/05/14 07:19:18;;;;;;;16.33;11.40;;;18.40;99.90;;;;;;5057181;28;20033;-55
2022/05/14 07:21:46;;;;;;;15.75;10.85;;;18.40;99.90;;;;;;5057218;28;20097;-55
2022/05/14 07:24:28;;;;;;;16.15;11.57;;;18.50;99.90;;;;;;5057546;28;20029;-55
2022/05/14 07:26:56;;;;;;;17.10;11.98;;;18.60;99.90;;;;;;5057160;28;20040;-55
2022/05/14 07:29:24;;;;;;;14.27;10.88;;;18.70;99.90;;;;;;5057011;28;20479;-55
2022/05/14 07:31:51;;;;;;;19.42;12.75;;;18.80;99.90;;;;;;5057117;28;20083;-55
2022/05/14 07:34:17;;;;;;;18.08;14.52;;;18.90;99.90;;;;;;5056657;28;20021;-55
2022/05/14 07:36:52;;;;;;;31.35;26.02;;;19.10;99.90;;;;;;5056988;28;20033;-55
2022/05/14 07:39:21;;;;;;;35.85;22.90;;;18.90;99.90;;;;;;5056751;28;20033;-55
2022/05/14 07:41:51;;;;;;;30.43;21.40;;;19.20;99.90;;;;;;5056873;28;20100;-55
2022/05/14 07:44:21;;;;;;;44.03;35.35;;;19.40;99.90;;;;;;5056820;28;20035;-55
2022/05/14 07:46:49;;;;;;;40.70;31.77;;;19.40;99.90;;;;;;5056679;28;20028;-55
2022/05/14 07:49:17;;;;;;;20.13;15.15;;;19.40;99.90;;;;;;5056735;28;20052;-55
2022/05/14 07:51:43;;;;;;;16.02;13.38;;;19.50;99.90;;;;;;5056292;28;20037;-54
2022/05/14 07:54:10;;;;;;;17.75;12.75;;;19.60;99.90;;;;;;5056367;28;20035;-55
2022/05/14 07:56:38;;;;;;;16.67;12.15;;;19.70;99.90;;;;;;5056493;28;20029;-55
2022/05/14 07:59:04;;;;;;;18.10;13.00;;;19.80;99.90;;;;;;5056479;28;20021;-55
2022/05/14 08:01:31;;;;;;;23.30;15.55;;;19.90;99.90;;;;;;5056453;28;20028;-55
2022/05/14 08:03:57;;;;;;;21.77;13.18;;;20.00;99.90;;;;;;5056491;28;20041;-55
2022/05/14 08:06:23;;;;;;;29.38;18.27;;;20.00;99.90;;;;;;5056454;28;20025;-55
2022/05/14 08:08:51;;;;;;;37.88;23.50;;;20.10;99.90;;;;;;5056618;28;20123;-55
2022/05/14 08:11:17;;;;;;;42.28;26.23;;;20.00;99.90;;;;;;5056227;28;20032;-55
2022/05/14 08:13:45;;;;;;;42.03;29.08;;;20.00;99.90;;;;;;5056071;28;20594;-55
2022/05/14 08:16:13;;;;;;;47.78;28.40;;;20.10;99.90;;;;;;5056173;28;20028;-55
2022/05/14 08:18:40;;;;;;;52.65;28.35;;;20.30;99.90;;;;;;5056028;28;20526;-55
2022/05/14 08:26:36;;;;;;;31.63;22.30;;;20.80;99.90;;;;;;5055871;28;20060;-55
2022/05/14 08:29:02;;;;;;;38.60;23.77;;;21.10;99.90;;;;;;5055767;28;20029;-55
2022/05/14 08:31:29;;;;;;;49.08;29.75;;;21.40;99.90;;;;;;5055978;28;20036;-55
2022/05/14 08:33:55;;;;;;;74.57;39.25;;;21.70;99.90;;;;;;5055747;28;20029;-55
2022/05/14 08:36:21;;;;;;;71.15;40.40;;;22.20;99.90;;;;;;5055784;28;20067;-55
2022/05/14 08:38:47;;;;;;;82.20;42.47;;;22.70;99.90;;;;;;5055777;28;20021;-55
2022/05/14 08:41:15;;;;;;;89.80;48.78;;;23.20;99.90;;;;;;5055419;28;20040;-55
2022/05/14 08:43:50;;;;;;;68.63;36.60;;;23.40;99.90;;;;;;5055481;28;20453;-55
2022/05/14 08:46:19;;;;;;;42.30;23.60;;;23.80;99.90;;;;;;5055447;28;20126;-55
2022/05/14 08:48:56;;;;;;;38.70;16.20;;;24.10;99.90;;;;;;5055460;28;20088;-55
2022/05/14 08:51:26;;;;;;;26.52;14.98;;;24.30;99.90;;;;;;5055373;28;20021;-55
2022/05/14 08:53:52;;;;;;;38.58;16.92;;;24.30;99.90;;;;;;5055512;28;20028;-55
2022/05/14 08:56:21;;;;;;;32.45;16.83;;;24.20;99.90;;;;;;5055367;28;20021;-55
2022/05/14 08:59:17;;;;;;;22.50;12.07;;;24.50;99.90;;;;;;5055442;28;20021;-55
2022/05/14 09:01:46;;;;;;;20.10;11.20;;;24.70;99.90;;;;;;5055322;28;20055;-55
2022/05/14 09:04:17;;;;;;;26.17;12.13;;;24.40;99.40;;;;;;5054331;28;20036;-55
2022/05/14 09:06:45;;;;;;;36.83;21.88;;;24.20;99.90;;;;;;5055459;28;20041;-55
2022/05/14 09:09:11;;;;;;;30.73;17.67;;;24.00;99.90;;;;;;5054957;28;20029;-55
2022/05/14 09:11:51;;;;;;;31.08;19.17;;;23.80;99.90;;;;;;5055315;28;20159;-55
2022/05/14 09:14:33;;;;;;;32.08;16.95;;;23.80;99.90;;;;;;5055175;28;20041;-55
2022/05/14 09:17:13;;;;;;;30.42;14.88;;;24.10;99.90;;;;;;5055032;28;20029;-55
2022/05/14 09:19:44;;;;;;;28.88;18.73;;;24.70;99.90;;;;;;5055124;28;20024;-55
2022/05/14 09:22:17;;;;;;;30.95;20.55;;;25.40;99.90;;;;;;5054968;28;20021;-55
2022/05/14 09:24:52;;;;;;;33.67;21.35;;;25.80;98.00;;;;;;5054752;28;20465;-55
2022/05/14 09:27:26;;;;;;;37.83;23.25;;;25.60;94.10;;;;;;5054802;28;20032;-55
2022/05/14 09:29:59;;;;;;;35.42;27.13;;;25.70;95.20;;;;;;5054632;28;20466;-55
2022/05/14 09:32:32;;;;;;;41.70;25.70;;;26.00;95.90;;;;;;5054877;28;20024;-55
2022/05/14 09:35:21;;;;;;;32.80;22.88;;;26.50;95.30;;;;;;5054546;28;20187;-55
2022/05/14 09:37:47;;;;;;;34.67;28.67;;;26.60;96.90;;;;;;5054505;28;20415;-55
2022/05/14 09:40:25;;;;;;;39.55;24.45;;;26.80;94.10;;;;;;5054448;28;20035;-55
2022/05/14 09:43:08;;;;;;;28.73;21.27;;;27.40;96.40;;;;;;5054620;28;20017;-55
2022/05/14 09:45:36;;;;;;;30.85;23.75;;;27.70;74.40;;;;;;5054523;28;20036;-55
2022/05/14 09:48:09;;;;;;;27.55;23.45;;;27.80;68.90;;;;;;5054542;28;20036;-55
2022/05/14 09:50:35;;;;;;;32.10;21.75;;;28.20;65.40;;;;;;5054544;28;20470;-55
2022/05/14 09:53:05;;;;;;;31.38;24.83;;;28.30;75.90;;;;;;5054384;28;20041;-55
2022/05/14 09:56:00;;;;;;;29.07;22.77;;;28.70;70.50;;;;;;5054391;28;20028;-55
2022/05/14 09:58:46;;;;;;;26.52;22.40;;;28.70;60.40;;;;;;5054255;28;20112;-55
2022/05/14 10:01:33;;;;;;;30.27;20.40;;;28.90;58.20;;;;;;5054334;28;20029;-55
2022/05/14 10:04:29;;;;;;;21.40;14.07;;;29.50;60.10;;;;;;5054630;28;20090;-56
2022/05/14 10:07:05;;;;;;;21.15;12.60;;;28.70;55.60;;;;;;5054319;28;20040;-56
2022/05/14 10:09:51;;;;;;;19.45;12.90;;;27.90;57.90;;;;;;5054484;28;20028;-56
2022/05/14 10:12:31;;;;;;;21.15;12.60;;;28.60;56.80;;;;;;5053902;28;20036;-56
2022/05/14 10:15:15;;;;;;;21.52;11.95;;;29.00;58.30;;;;;;5054687;28;20186;-56
2022/05/14 10:18:02;;;;;;;22.08;13.20;;;29.80;60.80;;;;;;5060846;28;20079;-56
2022/05/14 10:20:55;;;;;;;18.30;13.07;;;30.10;53.40;;;;;;5060724;28;20024;-56
2022/05/14 10:26:57;;;;;;;20.20;8.85;;;30.20;51.40;;;;;;5060655;28;20105;-56
2022/05/14 10:29:26;;;;;;;;;;;30.00;51.80;;;;;;5061008;28;20104;-56
2022/05/14 10:32:07;;;;;;;10.57;7.50;;;29.20;56.40;;;;;;5060855;28;19909;-56
2022/05/14 10:34:53;;;;;;;14.18;8.85;;;28.30;61.50;;;;;;5060494;28;20045;-56
2022/05/14 10:37:40;;;;;;;20.13;9.52;;;27.90;63.30;;;;;;5060717;28;20029;-56
2022/05/14 10:40:19;;;;;;;15.40;8.90;;;28.00;64.30;;;;;;5060679;28;20033;-55
2022/05/14 10:42:52;;;;;;;16.30;8.57;;;27.80;69.70;;;;;;5060552;28;20483;-56
2022/05/14 10:45:24;;;;;;;13.13;8.27;;;28.10;59.20;;;;;;5060572;28;20029;-55
2022/05/14 10:48:00;;;;;;;14.57;8.70;;;28.50;61.00;;;;;;5060752;28;20037;-56
2022/05/14 10:50:30;;;;;;;13.93;7.32;;;28.60;64.20;;;;;;5060499;28;20061;-56
2022/05/14 10:52:57;;;;;;;;;;;28.90;58.90;;;;;;5060896;28;20025;-56
2022/05/14 10:55:30;;;;;;;13.77;7.72;;;29.80;62.70;;;;;;5060644;28;19920;-56
2022/05/14 10:58:03;;;;;;;15.50;8.27;;;30.50;54.20;;;;;;5060435;28;20515;-56
2022/05/14 11:00:39;;;;;;;14.93;8.02;;;30.20;51.10;;;;;;5042528;28;20029;-56
2022/05/14 11:03:21;;;;;;;15.23;8.15;;;29.70;50.40;;;;;;5060436;28;20470;-56
2022/05/14 11:05:50;;;;;;;11.43;6.85;;;29.50;51.30;;;;;;5060664;28;20032;-56
2022/05/14 11:08:30;;;;;;;19.50;6.57;;;29.50;51.80;;;;;;5060364;28;20423;-56
2022/05/14 11:11:26;;;;;;;16.20;6.20;;;29.80;52.40;;;;;;5060746;28;20028;-56
2022/05/14 11:14:03;;;;;;;17.40;6.18;;;29.20;50.10;;;;;;5060530;28;20029;-56
2022/05/14 11:16:38;;;;;;;10.38;5.75;;;29.20;54.10;;;;;;5060194;28;20446;-56
2022/05/14 11:19:04;;;;;;;12.63;6.88;;;28.80;54.90;;;;;;5060245;28;20060;-56
2022/05/14 11:21:50;;;;;;;19.23;6.40;;;28.50;54.50;;;;;;5060253;28;20040;-56
2022/05/14 11:24:16;;;;;;;14.18;5.97;;;28.20;54.30;;;;;;5060265;28;20025;-56
2022/05/14 11:26:51;;;;;;;14.85;6.05;;;27.50;56.20;;;;;;5059000;28;20037;-56
2022/05/14 11:29:24;;;;;;;12.27;5.72;;;27.30;56.60;;;;;;5056898;28;20029;-56
2022/05/14 11:32:02;;;;;;;15.70;6.10;;;26.70;57.70;;;;;;5057001;28;20036;-56
2022/05/14 11:34:28;;;;;;;14.18;5.78;;;26.30;59.90;;;;;;5056878;28;20048;-56
2022/05/14 11:36:58;;;;;;;14.98;6.03;;;26.40;62.40;;;;;;5056927;28;20081;-56
2022/05/14 11:39:31;;;;;;;11.20;4.95;;;26.20;62.80;;;;;;5056778;28;20047;-55
2022/05/14 11:42:26;;;;;;;12.90;5.38;;;26.10;64.10;;;;;;5056859;28;20025;-55
2022/05/14 11:45:02;;;;;;;11.02;4.90;;;26.10;67.00;;;;;;5056910;28;20056;-55
2022/05/14 11:47:51;;;;;;;10.70;5.38;;;26.40;59.20;;;;;;5056732;28;20087;-56
2022/05/14 11:50:21;;;;;;;10.43;5.28;;;26.40;59.20;;;;;;5056851;28;20086;-55
2022/05/14 11:52:56;;;;;;;;;;;26.80;73.80;;;;;;5056869;28;20385;-55
2022/05/14 11:55:27;;;;;;;6.88;3.90;;;27.00;60.10;;;;;;5056829;28;20358;-55
2022/05/14 11:58:07;;;;;;;15.52;4.72;;;27.10;54.60;;;;;;5056754;28;20107;-55
2022/05/14 12:00:34;;;;;;;7.20;4.03;;;27.20;59.80;;;;;;5056841;28;20063;-55
2022/05/14 12:03:12;;;;;;;6.60;3.60;;;27.40;56.30;;;;;;5056633;28;20272;-56
2022/05/14 12:05:50;;;;;;;9.25;2.92;;;27.40;61.10;;;;;;5056467;28;20111;-55
2022/05/14 12:08:28;;;;;;;6.13;3.20;;;27.90;52.30;;;;;;5056389;28;20031;-55
2022/05/14 12:11:16;;;;;;;6.32;2.97;;;28.30;51.80;;;;;;5056519;28;20043;-55
2022/05/14 12:14:14;;;;;;;8.88;4.28;;;28.40;49.00;;;;;;5056370;28;20032;-56
2022/05/14 12:16:49;;;;;;;7.05;2.55;;;28.40;47.90;;;;;;5040442;28;20083;-56
2022/05/14 12:19:27;;;;;;;10.07;3.40;;;28.90;49.90;;;;;;5056306;28;20116;-55
2022/05/14 12:21:58;;;;;;;12.90;3.35;;;29.50;46.00;;;;;;5055950;28;20482;-56
2022/05/14 12:24:30;;;;;;;6.32;2.85;;;29.40;42.40;;;;;;5056379;28;20136;-56
2022/05/14 12:26:56;;;;;;;8.15;2.60;;;29.60;46.30;;;;;;5055855;28;20029;-56
2022/05/14 12:29:29;;;;;;;4.78;2.08;;;29.90;43.30;;;;;;5055803;28;20087;-56
2022/05/14 12:34:56;;;;;;;8.50;2.97;;;30.40;43.40;;;;;;5055680;28;20479;-56
2022/05/14 12:37:41;;;;;;;8.15;3.35;;;30.60;39.40;;;;;;5055784;28;20104;-56
2022/05/14 12:40:17;;;;;;;5.80;2.80;;;29.80;39.60;;;;;;5054891;28;20032;-56
2022/05/14 12:42:44;;;;;;;10.65;3.20;;;30.10;40.40;;;;;;5055624;28;20037;-56
2022/05/14 12:45:11;;;;;;;8.10;2.78;;;29.90;41.20;;;;;;5056127;28;20029;-56
2022/05/14 12:47:38;;;;;;;6.38;2.70;;;29.60;41.90;;;;;;5055827;28;20029;-56
2022/05/14 12:50:26;;;;;;;12.50;4.10;;;29.70;41.90;;;;;;5055719;28;20025;-56
2022/05/14 12:52:56;;;;;;;6.43;2.58;;;29.30;42.60;;;;;;5055441;28;20033;-56
2022/05/14 12:55:24;;;;;;;15.15;3.75;;;28.90;42.70;;;;;;5055561;28;20060;-56
2022/05/14 12:57:51;;;;;;;8.32;2.80;;;28.60;43.20;;;;;;5055597;28;20029;-56
2022/05/14 13:00:17;;;;;;;15.13;4.35;;;28.40;45.20;;;;;;5055526;28;20036;-56
2022/05/14 13:02:55;;;;;;;7.25;3.30;;;27.60;44.90;;;;;;5055375;28;20033;-56
2022/05/14 13:05:30;;;;;;;12.00;3.42;;;27.60;46.20;;;;;;5055243;28;20379;-56
2022/05/14 13:08:07;;;;;;;7.40;2.90;;;27.50;47.50;;;;;;5055646;28;20025;-56
2022/05/14 13:10:34;;;;;;;16.38;2.65;;;28.00;47.10;;;;;;5055176;28;20032;-56